createdAt,value
2022-08-24T00:02:02.487Z,101627.31
2022-08-24T00:04:32.074Z,101626.00
2022-08-24T00:07:01.299Z,101598.56
2022-08-24T00:09:29.843Z,101612.75
2022-08-24T00:11:58.404Z,101613.63
2022-08-24T00:14:27.158Z,101614.09
2022-08-24T00:16:57.802Z,101624.72
2022-08-24T00:19:26.589Z,101621.28
2022-08-24T00:21:55.065Z,101618.63
2022-08-24T00:24:23.593Z,101621.88
2022-08-24T00:26:51.926Z,101625.28
2022-08-24T00:29:21.609Z,101616.81
2022-08-24T00:31:50.641Z,101625.72
2022-08-24T00:34:20.871Z,101536.44
2022-08-24T00:36:49.363Z,101625.44
2022-08-24T00:39:18.066Z,101607.53
2022-08-24T00:41:50.735Z,101615.28
2022-08-24T00:44:20.597Z,101581.06
2022-08-24T00:46:55.237Z,101623.34
2022-08-24T00:49:30.618Z,101619.63
2022-08-24T00:52:06.982Z,101596.16
2022-08-24T00:54:45.870Z,101623.34
2022-08-24T00:57:20.212Z,101621.31
2022-08-24T00:59:54.149Z,101590.41
2022-08-24T01:02:27.952Z,101614.22
2022-08-24T01:05:01.529Z,101618.81
2022-08-24T01:07:32.300Z,101608.34
2022-08-24T01:10:04.980Z,101606.16
2022-08-24T01:12:36.251Z,101607.28
2022-08-24T01:15:09.769Z,101608.09
2022-08-24T01:17:56.685Z,101609.09
2022-08-24T01:20:27.022Z,101612.56
2022-08-24T01:23:08.083Z,101617.81
2022-08-24T01:25:40.113Z,101608.88
2022-08-24T01:28:14.339Z,101626.44
2022-08-24T01:30:45.456Z,101619.88
2022-08-24T01:33:26.460Z,101628.53
2022-08-24T01:36:02.560Z,101621.50
2022-08-24T01:38:31.921Z,101631.03
2022-08-24T01:41:05.649Z,101595.00
2022-08-24T01:43:34.463Z,101635.09
2022-08-24T01:46:08.173Z,101637.88
2022-08-24T01:48:36.593Z,101640.38
2022-08-24T01:51:05.471Z,101640.31
2022-08-24T01:53:33.999Z,101648.78
2022-08-24T01:56:04.372Z,101655.34
2022-08-24T01:58:33.310Z,101652.53
2022-08-24T02:01:01.797Z,101645.97
2022-08-24T02:03:31.111Z,101653.06
2022-08-24T02:06:00.881Z,101649.31
2022-08-24T02:08:30.433Z,101644.72
2022-08-24T02:10:58.871Z,101646.28
2022-08-24T02:13:28.709Z,101641.66
2022-08-24T02:15:57.959Z,101639.38
2022-08-24T02:18:26.584Z,101631.84
2022-08-24T02:20:55.163Z,101630.22
2022-08-24T02:23:23.574Z,101642.66
2022-08-24T02:25:52.231Z,101635.81
2022-08-24T02:28:20.823Z,101640.03
2022-08-24T02:30:51.025Z,101634.88
2022-08-24T02:33:19.684Z,101640.50
2022-08-24T02:35:48.352Z,101567.91
2022-08-24T02:38:16.736Z,101633.44
2022-08-24T02:40:45.590Z,101643.09
2022-08-24T02:43:14.089Z,101620.66
2022-08-24T02:45:48.290Z,101636.97
2022-08-24T02:48:21.513Z,101639.44
2022-08-24T02:50:52.725Z,101610.69
2022-08-24T02:53:24.199Z,101627.09
2022-08-24T02:55:52.699Z,101634.31
2022-08-24T02:58:21.275Z,101629.78
2022-08-24T03:00:50.689Z,101632.09
2022-08-24T03:03:22.725Z,101630.94
2022-08-24T03:05:51.198Z,101625.56
2022-08-24T03:08:22.981Z,101633.75
2022-08-24T03:10:52.704Z,101633.41
2022-08-24T03:13:21.315Z,101617.19
2022-08-24T03:15:49.772Z,101627.88
2022-08-24T03:18:18.075Z,101642.47
2022-08-24T03:20:55.606Z,101640.31
2022-08-24T03:23:25.539Z,101635.09
2022-08-24T03:25:54.034Z,101634.81
2022-08-24T03:28:24.115Z,101630.59
2022-08-24T03:30:53.064Z,101635.34
2022-08-24T03:33:22.108Z,101635.00
2022-08-24T03:35:50.471Z,101636.16
2022-08-24T03:38:21.306Z,101637.50
2022-08-24T03:40:50.803Z,101635.22
2022-08-24T03:43:33.147Z,101639.19
2022-08-24T03:46:03.292Z,101634.47
2022-08-24T03:48:32.041Z,101643.16
2022-08-24T03:51:00.619Z,101643.91
2022-08-24T03:53:30.326Z,101638.69
2022-08-24T03:55:59.616Z,101629.81
2022-08-24T03:58:36.802Z,101629.66
2022-08-24T04:01:06.490Z,101628.28
2022-08-24T04:03:38.039Z,101630.69
2022-08-24T04:06:07.997Z,101645.69
2022-08-24T04:08:38.091Z,101642.03
2022-08-24T04:11:07.295Z,101649.06
2022-08-24T04:13:35.797Z,101640.13
2022-08-24T04:16:07.063Z,101647.44
2022-08-24T04:18:35.735Z,101644.09
2022-08-24T04:21:04.801Z,101646.69
2022-08-24T04:23:46.914Z,101648.44
2022-08-24T04:26:45.274Z,101641.50
2022-08-24T04:29:10.154Z,101644.19
2022-08-24T04:31:44.372Z,101656.50
2022-08-24T04:34:16.052Z,101649.25
2022-08-24T04:36:46.114Z,101647.38
2022-08-24T04:39:15.022Z,101656.44
2022-08-24T04:42:07.574Z,101641.22
2022-08-24T04:44:40.388Z,101645.69
2022-08-24T04:47:09.535Z,101650.38
2022-08-24T04:49:39.405Z,101649.59
2022-08-24T04:52:09.956Z,101658.41
2022-08-24T04:54:38.765Z,101660.13
2022-08-24T04:57:17.772Z,101650.13
2022-08-24T04:59:47.602Z,101658.69
2022-08-24T05:02:16.334Z,101658.25
2022-08-24T05:04:48.344Z,101671.09
2022-08-24T05:07:18.081Z,101669.44
2022-08-24T05:09:47.232Z,101666.41
2022-08-24T05:12:17.168Z,101671.28
2022-08-24T05:14:54.413Z,101670.28
2022-08-24T05:17:23.645Z,101670.38
2022-08-24T05:19:51.958Z,101673.88
2022-08-24T05:22:21.213Z,101662.38
2022-08-24T05:24:54.376Z,101676.06
2022-08-24T05:27:26.264Z,101676.69
2022-08-24T05:29:55.762Z,101682.38
2022-08-24T05:32:24.890Z,101678.47
2022-08-24T05:34:54.814Z,101674.53
2022-08-24T05:37:24.666Z,101677.38
2022-08-24T05:40:15.460Z,101681.81
2022-08-24T05:42:48.499Z,101671.16
2022-08-24T05:45:17.680Z,101663.69
2022-08-24T05:47:46.378Z,101591.63
2022-08-24T05:50:37.414Z,101663.69
2022-08-24T05:53:06.226Z,101689.94
2022-08-24T05:55:34.905Z,101682.22
2022-08-24T05:58:04.901Z,101677.44
2022-08-24T06:00:33.506Z,101679.13
2022-08-24T06:03:01.931Z,101685.22
2022-08-24T06:05:30.514Z,101683.44
2022-08-24T06:08:01.111Z,101678.56
2022-08-24T06:10:37.237Z,101670.50
2022-08-24T06:13:08.649Z,101682.47
2022-08-24T06:15:37.874Z,101578.34
2022-08-24T06:18:07.994Z,101704.47
2022-08-24T06:20:42.510Z,101577.75
2022-08-24T06:23:11.350Z,101690.66
2022-08-24T06:26:02.772Z,101703.84
2022-08-24T06:28:33.614Z,101701.88
2022-08-24T06:31:07.492Z,101707.41
2022-08-24T06:33:36.498Z,101703.03
2022-08-24T06:36:05.288Z,101709.78
2022-08-24T06:38:36.014Z,101704.09
2022-08-24T06:41:07.110Z,101707.56
2022-08-24T06:43:37.554Z,101678.38
2022-08-24T06:46:13.835Z,101706.09
2022-08-24T06:48:46.038Z,101711.72
2022-08-24T06:51:17.787Z,101706.91
2022-08-24T06:53:46.877Z,101719.72
2022-08-24T06:56:16.762Z,101719.84
2022-08-24T06:58:47.616Z,101715.09
2022-08-24T07:01:22.562Z,101720.75
2022-08-24T07:03:51.853Z,101723.03
2022-08-24T07:06:31.776Z,101717.59
2022-08-24T07:09:02.274Z,101720.16
2022-08-24T07:11:34.991Z,101728.91
2022-08-24T07:14:05.176Z,101732.28
2022-08-24T07:16:34.105Z,101716.00
2022-08-24T07:19:05.612Z,101726.28
2022-08-24T07:21:34.340Z,101728.84
2022-08-24T07:24:04.260Z,101736.28
2022-08-24T07:26:36.563Z,101729.63
2022-08-24T07:29:30.605Z,101733.53
2022-08-24T07:32:01.734Z,101733.81
2022-08-24T07:34:38.456Z,101736.84
2022-08-24T07:37:08.876Z,101751.13
2022-08-24T07:39:40.756Z,101751.56
2022-08-24T07:42:16.058Z,101751.34
2022-08-24T07:44:51.767Z,101753.41
2022-08-24T07:47:37.798Z,101752.13
2022-08-24T07:50:14.886Z,101740.97
2022-08-24T07:52:43.294Z,101751.25
2022-08-24T07:55:13.766Z,101756.50
2022-08-24T07:57:45.152Z,101759.72
2022-08-24T08:00:19.610Z,101752.94
2022-08-24T08:02:52.761Z,101754.66
2022-08-24T08:05:24.720Z,101757.66
2022-08-24T08:07:55.248Z,101757.94
2022-08-24T08:10:24.356Z,101767.78
2022-08-24T08:12:54.381Z,101763.69
2022-08-24T08:15:24.156Z,101761.25
2022-08-24T08:18:06.970Z,101765.53
2022-08-24T08:20:40.393Z,101767.19
2022-08-24T08:23:26.442Z,101744.47
2022-08-24T08:26:16.964Z,101771.69
2022-08-24T08:28:57.216Z,101773.41
2022-08-24T08:31:27.288Z,101779.16
2022-08-24T08:33:56.443Z,101781.69
2022-08-24T08:36:25.640Z,101774.56
2022-08-24T08:38:55.262Z,101765.97
2022-08-24T08:42:20.480Z,101772.94
2022-08-24T08:45:07.123Z,101773.59
2022-08-24T08:48:49.383Z,101775.78
2022-08-24T08:51:52.019Z,101765.72
2022-08-24T08:54:35.021Z,101778.66
2022-08-24T08:57:19.992Z,101772.69
2022-08-24T09:00:10.358Z,101784.59
2022-08-24T09:03:24.587Z,101787.22
2022-08-24T09:06:45.920Z,101780.00
2022-08-24T09:09:55.967Z,101781.84
2022-08-24T09:12:39.023Z,101778.41
2022-08-24T09:15:33.821Z,101787.25
2022-08-24T09:18:19.049Z,101790.69
2022-08-24T09:21:16.575Z,101791.31
2022-08-24T09:24:01.350Z,101793.59
2022-08-24T09:26:34.092Z,101790.44
2022-08-24T09:29:14.938Z,101785.97
2022-08-24T09:32:04.768Z,101794.38
2022-08-24T09:34:49.187Z,101796.25
2022-08-24T09:37:34.692Z,101777.66
2022-08-24T09:40:27.100Z,101801.03
2022-08-24T09:43:45.825Z,101795.16
2022-08-24T09:47:07.195Z,101796.81
2022-08-24T09:50:56.956Z,101785.44
2022-08-24T09:54:10.426Z,101790.59
2022-08-24T09:57:09.348Z,101795.03
2022-08-24T10:00:12.973Z,101797.34
2022-08-24T10:03:08.254Z,101766.84
2022-08-24T10:06:09.332Z,101780.81
2022-08-24T10:09:00.993Z,101787.69
2022-08-24T10:11:42.691Z,101785.84
2022-08-24T10:14:20.401Z,101787.56
2022-08-24T10:17:03.422Z,101789.22
2022-08-24T10:19:50.534Z,101782.66
2022-08-24T10:22:37.480Z,101776.78
2022-08-24T10:25:29.024Z,101781.47
2022-08-24T10:28:16.783Z,101785.31
2022-08-24T10:31:05.653Z,101779.88
2022-08-24T10:33:49.338Z,101781.94
2022-08-24T10:37:19.890Z,101760.09
2022-08-24T10:40:35.981Z,101784.91
2022-08-24T10:43:33.915Z,101783.56
2022-08-24T10:46:50.046Z,101776.72
2022-08-24T10:50:04.269Z,101774.59
2022-08-24T10:53:35.322Z,101779.09
2022-08-24T10:56:12.879Z,101779.75
2022-08-24T10:58:55.414Z,101768.94
2022-08-24T11:01:31.148Z,101770.53
2022-08-24T11:04:08.635Z,101778.09
2022-08-24T11:06:39.981Z,101762.78
2022-08-24T11:09:17.238Z,101766.16
2022-08-24T11:11:52.320Z,101767.91
2022-08-24T11:14:31.982Z,101764.31
2022-08-24T11:17:17.985Z,101760.44
2022-08-24T11:19:46.895Z,101766.91
2022-08-24T11:22:41.011Z,101735.66
2022-08-24T11:25:18.142Z,101755.00
2022-08-24T11:27:52.742Z,101760.94
2022-08-24T11:30:26.595Z,101754.59
2022-08-24T11:32:58.044Z,101743.44
2022-08-24T11:35:36.212Z,101749.97
2022-08-24T11:38:10.101Z,101758.69
2022-08-24T11:40:44.221Z,101757.88
2022-08-24T11:43:37.422Z,101757.56
2022-08-24T11:46:18.225Z,101756.66
2022-08-24T11:49:00.436Z,101666.53
2022-08-24T11:51:38.972Z,101755.00
2022-08-24T11:54:24.631Z,101751.16
2022-08-24T11:57:09.454Z,101752.00
2022-08-24T11:59:53.190Z,101745.41
2022-08-24T12:02:29.890Z,101747.72
2022-08-24T12:05:07.674Z,101749.16
2022-08-24T12:07:51.684Z,101749.59
2022-08-24T12:10:32.771Z,101745.03
2022-08-24T12:13:09.162Z,101722.38
2022-08-24T12:15:52.027Z,101750.44
2022-08-24T12:18:31.020Z,101747.63
2022-08-24T12:20:59.861Z,101757.94
2022-08-24T12:23:37.797Z,101708.66
2022-08-24T12:26:15.292Z,101750.97
2022-08-24T12:28:54.210Z,101743.94
2022-08-24T12:31:39.997Z,101726.34
2022-08-24T12:34:17.706Z,101745.69
2022-08-24T12:36:58.951Z,101752.34
2022-08-24T12:39:33.226Z,101755.16
2022-08-24T12:42:15.789Z,101752.31
2022-08-24T12:44:52.278Z,101753.00
2022-08-24T12:47:31.139Z,101745.41
2022-08-24T12:50:08.694Z,101753.44
2022-08-24T12:53:19.883Z,101752.22
2022-08-24T12:56:25.784Z,101748.31
2022-08-24T12:59:14.730Z,101750.94
2022-08-24T13:01:48.121Z,101759.53
2022-08-24T13:04:35.738Z,101713.31
2022-08-24T13:07:10.314Z,101753.00
2022-08-24T13:09:43.173Z,101653.56
2022-08-24T13:12:56.936Z,101747.59
2022-08-24T13:16:00.693Z,101726.22
2022-08-24T13:18:53.199Z,101743.06
2022-08-24T13:21:51.865Z,101745.88
2022-08-24T13:25:02.162Z,101740.34
2022-08-24T13:28:28.260Z,101739.88
2022-08-24T13:31:14.632Z,101739.53
2022-08-24T13:33:47.684Z,101738.31
2022-08-24T13:36:57.253Z,101735.72
2022-08-24T13:40:03.413Z,101735.13
2022-08-24T13:43:08.213Z,101736.63
2022-08-24T13:45:43.795Z,101743.25
2022-08-24T13:48:28.490Z,101729.03
2022-08-24T13:51:36.484Z,101739.88
2022-08-24T13:54:25.217Z,101740.94
2022-08-24T13:57:28.951Z,101724.53
2022-08-24T14:00:17.913Z,101730.22
2022-08-24T14:03:06.550Z,101730.63
2022-08-24T14:05:43.704Z,101738.47
2022-08-24T14:08:32.180Z,101735.47
2022-08-24T14:11:12.191Z,101725.81
2022-08-24T14:13:57.517Z,101725.56
2022-08-24T14:17:03.042Z,101725.41
2022-08-24T14:19:45.738Z,101726.75
2022-08-24T14:22:29.669Z,101719.31
2022-08-24T14:25:14.686Z,101724.94
2022-08-24T14:27:47.416Z,101721.19
2022-08-24T14:30:50.370Z,101719.47
2022-08-24T14:33:33.109Z,101717.75
2022-08-24T14:36:20.540Z,101696.81
2022-08-24T14:39:02.107Z,101710.78
2022-08-24T14:41:52.125Z,101711.19
2022-08-24T14:44:57.156Z,101674.56
2022-08-24T14:47:44.521Z,101712.50
2022-08-24T14:50:18.198Z,101702.69
2022-08-24T14:53:01.166Z,101705.72
2022-08-24T14:55:42.478Z,101704.81
2022-08-24T14:58:29.089Z,101709.06
2022-08-24T15:01:36.619Z,101703.69
2022-08-24T15:04:38.391Z,101696.47
2022-08-24T15:07:30.106Z,101701.06
2022-08-24T15:10:00.676Z,101693.47
2022-08-24T15:12:40.090Z,101697.22
2022-08-24T15:15:15.303Z,101706.16
2022-08-24T15:18:00.021Z,101701.06
2022-08-24T15:20:55.129Z,101695.97
2022-08-24T15:23:49.346Z,101694.84
2022-08-24T15:26:28.787Z,101693.00
2022-08-24T15:28:58.067Z,101689.78
2022-08-24T15:31:30.202Z,101689.25
2022-08-24T15:34:03.329Z,101689.84
2022-08-24T15:36:34.469Z,101691.50
2022-08-24T15:39:06.921Z,101684.16
2022-08-24T15:41:39.081Z,101683.13
2022-08-24T15:44:13.142Z,101690.69
2022-08-24T15:46:55.697Z,101681.53
2022-08-24T15:49:30.909Z,101682.41
2022-08-24T15:52:02.246Z,101684.44
2022-08-24T15:54:35.624Z,101686.63
2022-08-24T15:57:06.719Z,101681.38
2022-08-24T15:59:49.045Z,101683.25
2022-08-24T16:02:30.535Z,101675.28
2022-08-24T16:05:18.818Z,101680.28
2022-08-24T16:08:10.547Z,101682.91
2022-08-24T16:10:42.727Z,101682.63
2022-08-24T16:13:23.604Z,101673.97
2022-08-24T16:16:01.490Z,101669.19
2022-08-24T16:18:51.113Z,101659.69
2022-08-24T16:21:33.940Z,101671.25
2022-08-24T16:24:09.081Z,101669.06
2022-08-24T16:26:57.152Z,101677.13
2022-08-24T16:29:53.419Z,101663.72
2022-08-24T16:32:30.731Z,101671.69
2022-08-24T16:35:19.924Z,101662.63
2022-08-24T16:37:50.611Z,101664.47
2022-08-24T16:40:20.036Z,101639.06
2022-08-24T16:42:48.959Z,101654.56
2022-08-24T16:45:20.760Z,101653.25
2022-08-24T16:47:49.486Z,101658.72
2022-08-24T16:50:20.821Z,101638.56
2022-08-24T16:52:51.657Z,101651.78
2022-08-24T16:55:20.054Z,101647.78
2022-08-24T16:57:48.582Z,101646.56
2022-08-24T17:00:22.006Z,101642.81
2022-08-24T17:02:50.818Z,101616.22
2022-08-24T17:05:19.810Z,101637.81
2022-08-24T17:07:50.167Z,101636.03
2022-08-24T17:10:23.159Z,101601.47
2022-08-24T17:12:51.823Z,101631.72
2022-08-24T17:15:21.709Z,101636.50
2022-08-24T17:17:58.369Z,101625.75
2022-08-24T17:20:27.004Z,101570.44
2022-08-24T17:22:55.321Z,101629.34
2022-08-24T17:25:25.662Z,101638.97
2022-08-24T17:27:55.291Z,101631.00
2022-08-24T17:30:24.852Z,101613.94
2022-08-24T17:32:55.829Z,101642.47
2022-08-24T17:35:25.026Z,101644.03
2022-08-24T17:37:54.741Z,101650.16
2022-08-24T17:40:29.893Z,101578.38
2022-08-24T17:42:58.447Z,101659.44
2022-08-24T17:45:27.222Z,101653.09
2022-08-24T17:47:55.677Z,101650.06
2022-08-24T17:50:25.219Z,101649.53
2022-08-24T17:52:58.831Z,101654.66
2022-08-24T17:55:30.550Z,101651.06
2022-08-24T17:57:59.758Z,101634.13
2022-08-24T18:00:28.081Z,101661.75
2022-08-24T18:02:56.442Z,101620.06
2022-08-24T18:05:25.097Z,101571.81
2022-08-24T18:07:55.750Z,101653.97
2022-08-24T18:10:28.592Z,101651.25
2022-08-24T18:12:59.378Z,101666.56
2022-08-24T18:15:35.778Z,101658.22
2022-08-24T18:18:09.464Z,101560.78
2022-08-24T18:20:42.051Z,101626.81
2022-08-24T18:23:11.838Z,101665.09
2022-08-24T18:25:44.396Z,101658.13
2022-08-24T18:28:16.085Z,101672.09
2022-08-24T18:30:44.978Z,101569.50
2022-08-24T18:33:13.451Z,101662.88
2022-08-24T18:35:41.879Z,101670.88
2022-08-24T18:38:10.565Z,101650.97
2022-08-24T18:40:39.334Z,101670.75
2022-08-24T18:43:08.913Z,101657.56
2022-08-24T18:45:39.712Z,101678.16
2022-08-24T18:48:08.181Z,101668.22
2022-08-24T18:50:41.938Z,101681.13
2022-08-24T18:53:13.306Z,101676.09
2022-08-24T18:55:44.228Z,101689.63
2022-08-24T18:58:12.850Z,101681.75
2022-08-24T19:00:43.168Z,101690.16
2022-08-24T19:03:16.345Z,101690.16
2022-08-24T19:05:45.513Z,101691.34
2022-08-24T19:08:14.102Z,101676.84
2022-08-24T19:10:42.505Z,101683.00
2022-08-24T19:13:15.354Z,101693.78
2022-08-24T19:15:47.654Z,101687.75
2022-08-24T19:18:18.330Z,101693.19
2022-08-24T19:20:50.289Z,101684.88
2022-08-24T19:23:24.616Z,101681.66
2022-08-24T19:25:54.611Z,101688.44
2022-08-24T19:28:24.544Z,101690.19
2022-08-24T19:30:57.633Z,101686.22
2022-08-24T19:33:29.390Z,101693.50
2022-08-24T19:35:59.247Z,101693.06
2022-08-24T19:38:27.880Z,101675.41
2022-08-24T19:40:58.132Z,101677.91
2022-08-24T19:43:28.323Z,101681.81
2022-08-24T19:46:10.634Z,101675.78
2022-08-24T19:48:40.639Z,101702.13
2022-08-24T19:51:14.139Z,101598.84
2022-08-24T19:53:43.543Z,101698.72
2022-08-24T19:56:12.514Z,101691.13
2022-08-24T19:58:48.073Z,101692.09
2022-08-24T20:01:21.495Z,101694.06
2022-08-24T20:03:50.264Z,101695.53
2022-08-24T20:06:21.124Z,101699.31
2022-08-24T20:08:49.999Z,101695.16
2022-08-24T20:11:20.261Z,101692.94
2022-08-24T20:13:54.480Z,101688.25
2022-08-24T20:16:28.358Z,101693.69
2022-08-24T20:18:56.754Z,101694.88
2022-08-24T20:21:28.272Z,101695.53
2022-08-24T20:23:59.063Z,101691.19
2022-08-24T20:26:28.489Z,101690.59
2022-08-24T20:28:58.854Z,101691.38
2022-08-24T20:31:31.753Z,101686.31
2022-08-24T20:34:00.265Z,101689.16
2022-08-24T20:36:33.933Z,101679.91
2022-08-24T20:39:05.116Z,101700.47
2022-08-24T20:41:33.485Z,101680.31
2022-08-24T20:44:02.128Z,101688.28
2022-08-24T20:46:33.129Z,101667.44
2022-08-24T20:49:01.918Z,101692.06
2022-08-24T20:51:30.477Z,101686.97
2022-08-24T20:53:59.169Z,101686.22
2022-08-24T20:56:32.533Z,101694.38
2022-08-24T20:59:03.415Z,101690.75
2022-08-24T21:01:33.827Z,101691.94
2022-08-24T21:04:05.277Z,101693.88
2022-08-24T21:06:34.696Z,101691.16
2022-08-24T21:09:05.652Z,101686.28
2022-08-24T21:11:34.609Z,101689.63
2022-08-24T21:14:05.541Z,101686.13
2022-08-24T21:16:39.575Z,101680.06
2022-08-24T21:19:08.959Z,101679.13
2022-08-24T21:21:41.678Z,101701.06
2022-08-24T21:24:10.918Z,101588.81
2022-08-24T21:26:39.516Z,101655.13
2022-08-24T21:29:10.431Z,101675.50
2022-08-24T21:31:40.624Z,101678.69
2022-08-24T21:34:28.009Z,101667.94
2022-08-24T21:36:56.612Z,101667.53
2022-08-24T21:39:25.048Z,101672.69
2022-08-24T21:41:54.684Z,101665.00
2022-08-24T21:44:22.980Z,101671.22
2022-08-24T21:46:53.297Z,101665.41
2022-08-24T21:49:22.422Z,101680.53
2022-08-24T21:51:51.042Z,101658.59
2022-08-24T21:54:19.426Z,101670.16
2022-08-24T21:56:47.884Z,101676.59
2022-08-24T21:59:16.584Z,101664.81
2022-08-24T22:01:44.925Z,101674.44
2022-08-24T22:04:15.819Z,101676.69
2022-08-24T22:06:44.290Z,101634.31
2022-08-24T22:09:12.612Z,101670.00
2022-08-24T22:11:42.434Z,101673.50
2022-08-24T22:14:10.944Z,101672.59
2022-08-24T22:16:39.679Z,101655.88
2022-08-24T22:19:08.110Z,101667.44
2022-08-24T22:21:47.174Z,101613.31
2022-08-24T22:24:16.787Z,101559.94
2022-08-24T22:26:45.976Z,101622.25
2022-08-24T22:29:14.381Z,101649.25
2022-08-24T22:31:44.986Z,101658.81
2022-08-24T22:34:16.655Z,101647.44
2022-08-24T22:36:51.702Z,101664.25
2022-08-24T22:39:20.123Z,101653.78
2022-08-24T22:41:48.414Z,101641.91
2022-08-24T22:44:22.454Z,101658.19
2022-08-24T22:46:53.786Z,101658.41
2022-08-24T22:49:25.111Z,101626.44
2022-08-24T22:51:55.068Z,101650.94
2022-08-24T22:54:25.463Z,101646.53
2022-08-24T22:56:56.635Z,101658.66
2022-08-24T22:59:27.764Z,101643.66
2022-08-24T23:01:57.893Z,101646.53
2022-08-24T23:04:29.863Z,101636.03
2022-08-24T23:07:00.425Z,101648.13
2022-08-24T23:09:28.645Z,101650.03
2022-08-24T23:12:13.210Z,101530.22
2022-08-24T23:14:41.740Z,101638.59
2022-08-24T23:17:10.345Z,101641.31
2022-08-24T23:19:56.300Z,101624.38
2022-08-24T23:22:26.014Z,101632.38
2022-08-24T23:24:55.058Z,101563.44
2022-08-24T23:27:23.492Z,101610.38
2022-08-24T23:29:52.001Z,101576.03
2022-08-24T23:32:20.896Z,101627.00
2022-08-24T23:34:49.969Z,101616.22
2022-08-24T23:37:19.996Z,101621.38
2022-08-24T23:39:49.728Z,101546.31
2022-08-24T23:42:18.141Z,101622.81
2022-08-24T23:44:46.923Z,101604.16
2022-08-24T23:47:15.679Z,101624.19
2022-08-24T23:49:44.674Z,101617.88
2022-08-24T23:52:26.767Z,101625.22
2022-08-24T23:55:17.868Z,101609.81
2022-08-24T23:57:47.352Z,101608.09
